Time;durP1;ratioP1;P1;durP2;ratioP2;P2;SDS_P1;SDS_P2;PMS_P1;PMS_P2;Temp;Humidity;BMP_temperature;BMP_pressure;BME280_temperature;BME280_humidity;BME280_pressure;Samples;Min_cycle;Max_cycle;Signal;HPM_P1;HPM_P2
2020/11/11 00:02:24;;;;;;;3.39;3.09;;;;;;;19.89;54.90;101577.37;;;;-53
2020/11/11 00:05:14;;;;;;;3.22;2.94;;;;;;;19.87;54.90;101580.74;;;;-54
2020/11/11 00:08:14;;;;;;;3.80;2.91;;;;;;;19.86;55.02;101580.58;;;;-54
2020/11/11 00:11:14;;;;;;;3.21;2.91;;;;;;;19.85;54.93;101585.25;;;;-54
2020/11/11 00:14:14;;;;;;;3.30;3.00;;;;;;;19.83;54.96;101585.86;;;;-54
2020/11/11 00:17:14;;;;;;;3.30;3.01;;;;;;;19.81;55.02;101586.87;;;;-51
2020/11/11 00:20:14;;;;;;;3.19;2.93;;;;;;;19.81;54.93;101584.75;;;;-51
2020/11/11 00:23:14;;;;;;;3.11;2.91;;;;;;;19.79;54.98;101581.70;;;;-51
2020/11/11 00:26:14;;;;;;;3.26;2.96;;;;;;;19.78;54.97;101580.06;;;;-52
2020/11/11 00:29:14;;;;;;;3.24;2.97;;;;;;;19.77;55.01;101577.09;;;;-51
2020/11/11 00:32:14;;;;;;;3.17;2.89;;;;;;;19.76;55.00;101575.95;;;;-51
2020/11/11 00:35:14;;;;;;;3.49;3.15;;;;;;;19.74;54.96;101575.58;;;;-52
2020/11/11 00:38:14;;;;;;;3.20;2.93;;;;;;;19.74;55.03;101578.17;;;;-59
2020/11/11 00:41:14;;;;;;;3.17;2.87;;;;;;;19.73;55.07;101580.17;;;;-59
2020/11/11 00:44:14;;;;;;;3.37;3.07;;;;;;;19.72;54.95;101577.56;;;;-59
2020/11/11 00:47:14;;;;;;;3.30;3.03;;;;;;;19.71;54.98;101577.84;;;;-58
2020/11/11 00:50:15;;;;;;;3.19;2.89;;;;;;;19.69;55.09;101577.48;;;;-59
2020/11/11 00:53:14;;;;;;;3.25;2.95;;;;;;;19.68;54.99;101577.28;;;;-59
2020/11/11 00:56:14;;;;;;;4.43;2.97;;;;;;;19.67;55.06;101579.55;;;;-59
2020/11/11 00:59:14;;;;;;;3.41;3.11;;;;;;;19.67;55.05;101586.02;;;;-59
2020/11/11 01:02:14;;;;;;;3.25;2.95;;;;;;;19.66;55.04;101585.77;;;;-59
2020/11/11 01:05:14;;;;;;;3.11;2.89;;;;;;;19.65;55.08;101590.95;;;;-59
2020/11/11 01:08:14;;;;;;;3.03;2.74;;;;;;;19.63;55.07;101591.77;;;;-59
2020/11/11 01:11:14;;;;;;;2.99;2.70;;;;;;;19.62;55.18;101587.70;;;;-59
2020/11/11 01:14:14;;;;;;;3.31;3.00;;;;;;;19.61;55.06;101585.17;;;;-59
2020/11/11 01:17:14;;;;;;;3.18;2.88;;;;;;;19.60;55.08;101584.89;;;;-51
2020/11/11 01:20:14;;;;;;;3.49;3.19;;;;;;;19.58;55.18;101582.23;;;;-51
2020/11/11 01:23:14;;;;;;;3.26;2.96;;;;;;;19.57;55.13;101575.80;;;;-51
2020/11/11 01:26:14;;;;;;;3.42;3.12;;;;;;;19.57;55.20;101578.73;;;;-51
2020/11/11 01:29:14;;;;;;;3.25;2.97;;;;;;;19.56;55.16;101577.30;;;;-52
2020/11/11 01:32:14;;;;;;;3.03;2.82;;;;;;;19.55;55.24;101579.49;;;;-51
2020/11/11 01:35:14;;;;;;;3.08;2.85;;;;;;;19.54;55.25;101577.91;;;;-52
2020/11/11 01:38:14;;;;;;;3.24;2.94;;;;;;;19.53;55.21;101575.78;;;;-52
2020/11/11 01:41:14;;;;;;;3.11;2.87;;;;;;;19.53;55.20;101576.89;;;;-51
2020/11/11 01:44:14;;;;;;;3.20;2.90;;;;;;;19.51;55.21;101580.45;;;;-51
2020/11/11 01:47:14;;;;;;;3.27;2.97;;;;;;;19.51;55.26;101578.63;;;;-51
2020/11/11 01:50:14;;;;;;;3.04;2.74;;;;;;;19.50;55.19;101575.61;;;;-51
2020/11/11 01:53:14;;;;;;;3.17;2.86;;;;;;;19.49;55.19;101572.59;;;;-52
2020/11/11 01:56:14;;;;;;;3.17;2.87;;;;;;;19.48;55.25;101571.75;;;;-51
2020/11/11 01:59:14;;;;;;;2.90;2.70;;;;;;;19.47;55.24;101568.00;;;;-52
2020/11/11 02:02:14;;;;;;;3.02;2.82;;;;;;;19.46;55.26;101568.64;;;;-54
2020/11/11 02:05:14;;;;;;;3.73;2.91;;;;;;;19.46;55.17;101564.95;;;;-54
2020/11/11 02:08:14;;;;;;;3.03;2.72;;;;;;;19.45;55.29;101557.38;;;;-54
2020/11/11 02:11:14;;;;;;;3.04;2.75;;;;;;;19.45;55.24;101552.58;;;;-54
2020/11/11 02:14:14;;;;;;;3.16;2.86;;;;;;;19.43;55.28;101561.72;;;;-54
2020/11/11 02:17:14;;;;;;;3.13;2.87;;;;;;;19.43;55.19;101562.53;;;;-54
2020/11/11 02:20:14;;;;;;;3.27;2.97;;;;;;;19.42;55.32;101563.02;;;;-54
2020/11/11 02:23:14;;;;;;;2.87;2.67;;;;;;;19.42;55.22;101558.02;;;;-54
2020/11/11 02:26:14;;;;;;;3.19;2.89;;;;;;;19.41;55.26;101551.91;;;;-54
2020/11/11 02:29:14;;;;;;;2.84;2.64;;;;;;;19.39;55.28;101554.80;;;;-59
2020/11/11 02:32:14;;;;;;;9.23;2.93;;;;;;;19.38;55.23;101552.43;;;;-59
2020/11/11 02:35:14;;;;;;;114.39;6.49;;;;;;;19.38;55.28;101552.19;;;;-59
2020/11/11 02:38:14;;;;;;;3.13;2.89;;;;;;;19.37;55.25;101554.66;;;;-59
2020/11/11 02:41:14;;;;;;;2.88;2.68;;;;;;;19.37;55.24;101552.55;;;;-51
2020/11/11 02:44:14;;;;;;;3.07;2.80;;;;;;;19.36;55.37;101549.25;;;;-51
2020/11/11 02:47:14;;;;;;;2.99;2.73;;;;;;;19.35;55.36;101549.58;;;;-51
2020/11/11 02:50:14;;;;;;;3.11;2.83;;;;;;;19.35;55.33;101547.53;;;;-51
2020/11/11 02:53:14;;;;;;;2.77;2.57;;;;;;;19.34;55.33;101539.05;;;;-51
2020/11/11 02:56:14;;;;;;;3.11;2.81;;;;;;;19.33;55.29;101535.78;;;;-52
2020/11/11 02:59:14;;;;;;;2.93;2.69;;;;;;;19.33;55.32;101536.19;;;;-53
2020/11/11 03:02:14;;;;;;;2.88;2.68;;;;;;;19.32;55.23;101537.12;;;;-51
2020/11/11 03:05:14;;;;;;;3.10;2.83;;;;;;;19.30;55.37;101538.90;;;;-51
2020/11/11 03:08:14;;;;;;;3.19;2.89;;;;;;;19.31;55.34;101538.00;;;;-52
2020/11/11 03:11:14;;;;;;;2.93;2.63;;;;;;;19.29;55.32;101536.83;;;;-59
2020/11/11 03:14:14;;;;;;;2.78;2.57;;;;;;;19.28;55.43;101532.42;;;;-58
2020/11/11 03:17:14;;;;;;;2.97;2.72;;;;;;;19.29;55.42;101539.83;;;;-59
2020/11/11 03:20:14;;;;;;;3.00;2.75;;;;;;;19.27;55.43;101544.09;;;;-59
2020/11/11 03:23:14;;;;;;;3.55;2.73;;;;;;;19.27;55.45;101542.30;;;;-59
2020/11/11 03:26:14;;;;;;;3.06;2.76;;;;;;;19.26;55.36;101539.45;;;;-59
2020/11/11 03:29:14;;;;;;;2.79;2.59;;;;;;;19.24;55.44;101532.98;;;;-51
2020/11/11 03:32:14;;;;;;;3.01;2.73;;;;;;;19.24;55.46;101535.25;;;;-51
2020/11/11 03:35:14;;;;;;;2.85;2.60;;;;;;;19.24;55.36;101534.77;;;;-51
2020/11/11 03:38:14;;;;;;;3.29;2.80;;;;;;;19.23;55.37;101533.83;;;;-51
2020/11/11 03:41:14;;;;;;;3.21;2.89;;;;;;;19.22;55.41;101525.29;;;;-51
2020/11/11 03:44:14;;;;;;;3.09;2.78;;;;;;;19.22;55.43;101522.45;;;;-51
2020/11/11 03:47:14;;;;;;;2.91;2.71;;;;;;;19.21;55.44;101522.65;;;;-53
2020/11/11 03:50:14;;;;;;;2.76;2.56;;;;;;;19.21;55.45;101516.95;;;;-54
2020/11/11 03:53:14;;;;;;;2.97;2.72;;;;;;;19.20;55.38;101512.23;;;;-54
2020/11/11 03:56:14;;;;;;;2.87;2.54;;;;;;;19.20;55.39;101512.23;;;;-53
2020/11/11 03:59:14;;;;;;;2.80;2.60;;;;;;;19.18;55.44;101517.14;;;;-54
2020/11/11 04:02:14;;;;;;;2.85;2.65;;;;;;;19.17;55.42;101516.86;;;;-54
2020/11/11 04:05:14;;;;;;;2.92;2.62;;;;;;;19.17;55.48;101521.52;;;;-54
2020/11/11 04:08:14;;;;;;;2.84;2.63;;;;;;;19.16;55.42;101522.78;;;;-54
2020/11/11 04:11:14;;;;;;;2.83;2.63;;;;;;;19.16;55.49;101525.63;;;;-54
2020/11/11 04:14:14;;;;;;;2.87;2.57;;;;;;;19.15;55.50;101526.19;;;;-54
2020/11/11 04:17:14;;;;;;;2.75;2.55;;;;;;;19.15;55.54;101526.64;;;;-54
2020/11/11 04:20:14;;;;;;;2.83;2.60;;;;;;;19.13;55.53;101525.48;;;;-54
2020/11/11 04:23:14;;;;;;;3.15;2.88;;;;;;;19.13;55.48;101523.59;;;;-53
2020/11/11 04:26:22;;;;;;;3.00;2.70;;;;;;;19.13;55.50;101519.84;;;;-54
2020/11/11 04:29:14;;;;;;;2.80;2.59;;;;;;;19.12;55.53;101520.41;;;;-54
2020/11/11 04:32:14;;;;;;;3.15;2.80;;;;;;;19.11;55.54;101520.72;;;;-53
2020/11/11 04:35:14;;;;;;;2.77;2.57;;;;;;;19.11;55.49;101515.65;;;;-54
2020/11/11 04:38:14;;;;;;;2.77;2.57;;;;;;;19.11;55.63;101515.24;;;;-54
2020/11/11 04:41:14;;;;;;;3.05;2.75;;;;;;;19.10;55.46;101512.88;;;;-54
2020/11/11 04:44:14;;;;;;;3.15;2.77;;;;;;;19.09;55.47;101508.94;;;;-53
2020/11/11 04:47:14;;;;;;;2.92;2.72;;;;;;;19.08;55.55;101505.69;;;;-54
2020/11/11 04:50:14;;;;;;;2.81;2.61;;;;;;;19.07;55.55;101502.71;;;;-54
2020/11/11 04:54:14;;;;;;;2.74;2.54;;;;;;;19.07;55.55;101506.24;;;;-54
2020/11/11 04:57:14;;;;;;;2.97;2.66;;;;;;;19.06;55.57;101508.30;;;;-54
2020/11/11 05:00:14;;;;;;;2.79;2.55;;;;;;;19.05;55.60;101510.09;;;;-54
2020/11/11 05:03:14;;;;;;;2.93;2.73;;;;;;;19.06;55.50;101515.37;;;;-54
2020/11/11 05:06:14;;;;;;;2.82;2.53;;;;;;;19.05;55.56;101515.20;;;;-54
2020/11/11 05:09:14;;;;;;;2.72;2.52;;;;;;;19.05;55.66;101512.66;;;;-54
2020/11/11 05:12:14;;;;;;;2.82;2.61;;;;;;;19.04;55.66;101507.93;;;;-54
2020/11/11 05:15:14;;;;;;;2.89;2.61;;;;;;;19.02;55.68;101499.77;;;;-54
2020/11/11 05:18:14;;;;;;;2.80;2.55;;;;;;;19.02;55.67;101495.62;;;;-54
2020/11/11 05:21:22;;;;;;;2.73;2.51;;;;;;;19.02;55.59;101495.53;;;;-54
2020/11/11 05:24:14;;;;;;;3.03;2.73;;;;;;;19.01;55.66;101500.23;;;;-54
2020/11/11 05:27:14;;;;;;;3.18;2.71;;;;;;;19.01;55.68;101495.89;;;;-54
2020/11/11 05:30:14;;;;;;;2.83;2.60;;;;;;;19.00;55.68;101497.77;;;;-54
2020/11/11 05:33:14;;;;;;;2.83;2.61;;;;;;;18.99;55.64;101498.41;;;;-54
2020/11/11 05:36:14;;;;;;;2.77;2.57;;;;;;;18.98;55.70;101499.42;;;;-54
2020/11/11 05:39:14;;;;;;;2.65;2.45;;;;;;;18.98;55.69;101499.02;;;;-54
2020/11/11 05:42:14;;;;;;;2.81;2.61;;;;;;;18.97;55.57;101489.90;;;;-54
2020/11/11 05:45:14;;;;;;;2.82;2.60;;;;;;;18.96;55.71;101492.70;;;;-54
2020/11/11 05:48:14;;;;;;;2.85;2.59;;;;;;;18.96;55.67;101498.47;;;;-53
2020/11/11 05:51:14;;;;;;;2.75;2.55;;;;;;;18.95;55.72;101494.64;;;;-54
2020/11/11 05:54:14;;;;;;;2.95;2.65;;;;;;;18.95;55.64;101490.91;;;;-54
2020/11/11 05:57:14;;;;;;;2.77;2.56;;;;;;;18.95;55.66;101491.48;;;;-54
2020/11/11 06:00:14;;;;;;;3.01;2.72;;;;;;;18.95;55.63;101494.16;;;;-54
2020/11/11 06:03:14;;;;;;;2.88;2.58;;;;;;;18.94;55.63;101490.63;;;;-54
2020/11/11 06:06:14;;;;;;;2.61;2.39;;;;;;;18.94;55.66;101495.58;;;;-53
2020/11/11 06:11:14;;;;;;;2.69;2.49;;;;;;;18.93;55.58;101499.38;;;;-55
2020/11/11 06:14:14;;;;;;;2.58;2.38;;;;;;;18.93;55.63;101496.62;;;;-54
2020/11/11 06:17:14;;;;;;;2.93;2.60;;;;;;;18.94;55.64;101501.09;;;;-54
2020/11/11 06:20:14;;;;;;;2.69;2.49;;;;;;;18.95;55.67;101503.66;;;;-54
2020/11/11 06:23:14;;;;;;;2.74;2.54;;;;;;;18.97;55.66;101508.17;;;;-54
2020/11/11 06:26:14;;;;;;;2.59;2.39;;;;;;;18.98;55.58;101511.68;;;;-54
2020/11/11 06:29:14;;;;;;;2.83;2.63;;;;;;;19.02;55.60;101516.25;;;;-54
2020/11/11 06:32:14;;;;;;;2.60;2.40;;;;;;;19.03;55.77;101514.91;;;;-54
2020/11/11 06:35:14;;;;;;;3.33;2.24;;;;;;;19.06;55.79;101510.99;;;;-54
2020/11/11 06:38:14;;;;;;;2.83;2.32;;;;;;;19.09;55.80;101508.61;;;;-54
2020/11/11 06:41:14;;;;;;;2.60;2.39;;;;;;;19.12;55.74;101508.78;;;;-54
2020/11/11 06:44:14;;;;;;;2.66;2.22;;;;;;;19.15;55.75;101508.84;;;;-54
2020/11/11 06:47:14;;;;;;;2.54;2.34;;;;;;;19.20;55.75;101514.43;;;;-55
2020/11/11 06:50:14;;;;;;;2.59;2.39;;;;;;;19.24;55.75;101515.58;;;;-54
2020/11/11 06:53:14;;;;;;;2.47;2.25;;;;;;;19.27;55.86;101515.41;;;;-55
2020/11/11 06:56:14;;;;;;;2.83;2.43;;;;;;;19.32;55.88;101520.70;;;;-54
2020/11/11 06:59:14;;;;;;;2.30;2.10;;;;;;;19.35;55.98;101521.29;;;;-55
2020/11/11 07:02:15;;;;;;;2.82;2.53;;;;;;;19.40;55.92;101522.05;;;;-55
2020/11/11 07:05:14;;;;;;;2.39;2.14;;;;;;;19.43;56.00;101518.47;;;;-54
2020/11/11 07:08:14;;;;;;;2.57;2.32;;;;;;;19.47;56.06;101522.47;;;;-55
2020/11/11 07:11:14;;;;;;;2.67;2.31;;;;;;;19.50;55.82;101519.03;;;;-55
2020/11/11 07:14:14;;;;;;;10.55;4.67;;;;;;;19.42;54.20;101518.34;;;;-55
2020/11/11 07:17:14;;;;;;;8.43;4.90;;;;;;;19.31;53.40;101515.17;;;;-57
2020/11/11 07:20:14;;;;;;;9.47;5.57;;;;;;;19.23;53.08;101517.33;;;;-57
2020/11/11 07:23:14;;;;;;;8.82;5.65;;;;;;;19.17;52.92;101516.45;;;;-55
2020/11/11 07:26:14;;;;;;;7.83;5.83;;;;;;;19.11;52.51;101514.75;;;;-57
2020/11/11 07:29:16;;;;;;;16.89;6.10;;;;;;;19.08;52.80;101509.66;;;;-54
2020/11/11 07:32:14;;;;;;;9.29;4.88;;;;;;;19.15;52.32;101506.98;;;;-56
2020/11/11 07:35:14;;;;;;;8.82;4.48;;;;;;;19.21;52.59;101504.93;;;;-59
2020/11/11 07:38:14;;;;;;;6.15;4.47;;;;;;;19.25;52.87;101496.09;;;;-50
2020/11/11 07:41:14;;;;;;;7.20;4.17;;;;;;;19.28;53.18;101497.36;;;;-54
2020/11/11 07:44:14;;;;;;;6.45;4.07;;;;;;;19.30;53.19;101501.84;;;;-54
2020/11/11 07:47:14;;;;;;;5.73;4.33;;;;;;;19.34;53.26;101506.94;;;;-61
2020/11/11 07:50:14;;;;;;;5.11;3.87;;;;;;;19.36;53.42;101506.38;;;;-60
2020/11/11 07:53:14;;;;;;;5.57;3.90;;;;;;;19.39;53.74;101502.69;;;;-61
2020/11/11 07:56:14;;;;;;;5.35;3.67;;;;;;;19.42;53.92;101501.27;;;;-60
2020/11/11 07:59:14;;;;;;;4.37;3.54;;;;;;;19.44;53.96;101500.34;;;;-60
2020/11/11 08:02:14;;;;;;;3.91;3.45;;;;;;;19.45;54.00;101498.27;;;;-60
2020/11/11 08:05:14;;;;;;;4.47;3.79;;;;;;;19.46;54.08;101497.63;;;;-56
2020/11/11 08:08:14;;;;;;;5.49;3.43;;;;;;;19.46;54.09;101498.94;;;;-55
2020/11/11 08:11:14;;;;;;;4.17;3.48;;;;;;;19.47;54.13;101504.09;;;;-56
2020/11/11 08:14:14;;;;;;;4.24;3.63;;;;;;;19.48;54.07;101502.06;;;;-56
2020/11/11 08:17:14;;;;;;;4.33;3.43;;;;;;;19.49;54.15;101500.48;;;;-56
2020/11/11 08:20:14;;;;;;;4.05;3.38;;;;;;;19.49;54.13;101498.45;;;;-60
2020/11/11 08:23:14;;;;;;;3.78;3.23;;;;;;;19.50;54.14;101500.17;;;;-53
2020/11/11 08:26:14;;;;;;;3.79;3.30;;;;;;;19.51;54.17;101498.09;;;;-53
2020/11/11 08:29:14;;;;;;;3.53;3.23;;;;;;;19.51;54.29;101496.19;;;;-53
2020/11/11 08:32:14;;;;;;;3.51;3.21;;;;;;;19.51;54.25;101497.20;;;;-53
2020/11/11 08:35:14;;;;;;;3.43;3.13;;;;;;;19.51;54.27;101491.95;;;;-53
2020/11/11 08:38:14;;;;;;;3.31;2.99;;;;;;;19.49;54.29;101483.89;;;;-53
2020/11/11 08:41:14;;;;;;;4.01;3.08;;;;;;;19.51;54.29;101491.80;;;;-60
2020/11/11 08:44:14;;;;;;;3.64;2.93;;;;;;;19.50;54.29;101487.97;;;;-56
2020/11/11 08:47:14;;;;;;;4.18;2.95;;;;;;;19.51;54.29;101487.11;;;;-56
2020/11/11 08:50:14;;;;;;;3.27;2.97;;;;;;;19.51;54.34;101485.98;;;;-56
2020/11/11 08:53:14;;;;;;;4.39;3.09;;;;;;;19.51;54.30;101483.50;;;;-56
2020/11/11 08:56:14;;;;;;;3.42;3.12;;;;;;;19.50;54.29;101474.80;;;;-57
2020/11/11 08:59:14;;;;;;;3.55;3.07;;;;;;;19.49;54.26;101476.33;;;;-56
2020/11/11 09:02:14;;;;;;;3.32;3.02;;;;;;;19.48;54.31;101479.72;;;;-55
2020/11/11 09:05:14;;;;;;;3.27;2.97;;;;;;;19.48;54.33;101476.45;;;;-57
2020/11/11 09:08:14;;;;;;;3.16;2.86;;;;;;;19.47;54.42;101475.56;;;;-53
2020/11/11 09:11:14;;;;;;;3.37;3.05;;;;;;;19.45;54.53;101472.34;;;;-52
2020/11/11 09:14:14;;;;;;;4.19;2.97;;;;;;;19.48;54.65;101470.20;;;;-45
2020/11/11 09:17:14;;;;;;;3.15;2.85;;;;;;;19.49;54.81;101470.97;;;;-50
2020/11/11 09:20:14;;;;;;;4.13;2.83;;;;;;;19.51;54.97;101474.02;;;;-50
2020/11/11 09:23:14;;;;;;;3.57;3.05;;;;;;;19.50;54.66;101478.22;;;;-50
2020/11/11 09:26:17;;;;;;;4.73;2.90;;;;;;;19.50;54.72;101477.48;;;;-50
2020/11/11 09:29:14;;;;;;;3.27;2.97;;;;;;;19.49;54.62;101477.31;;;;-49
2020/11/11 09:32:20;;;;;;;3.17;2.87;;;;;;;19.49;54.77;101481.54;;;;-50
2020/11/11 09:35:14;;;;;;;3.23;2.67;;;;;;;19.49;54.74;101483.82;;;;-50
2020/11/11 09:38:14;;;;;;;3.08;2.77;;;;;;;19.48;54.64;101490.52;;;;-50
2020/11/11 09:41:14;;;;;;;2.97;2.67;;;;;;;19.48;54.64;101493.20;;;;-49
2020/11/11 09:44:14;;;;;;;3.73;2.81;;;;;;;19.48;54.73;101484.18;;;;-50
2020/11/11 09:47:14;;;;;;;2.83;2.56;;;;;;;19.47;54.71;101479.86;;;;-54
2020/11/11 09:50:14;;;;;;;4.15;2.78;;;;;;;19.47;54.63;101469.22;;;;-53
2020/11/11 09:53:14;;;;;;;2.76;2.55;;;;;;;19.47;54.73;101465.96;;;;-53
2020/11/11 09:56:14;;;;;;;2.93;2.70;;;;;;;19.47;54.64;101460.59;;;;-54
2020/11/11 09:59:16;;;;;;;3.50;2.70;;;;;;;19.46;54.64;101451.05;;;;-54
2020/11/11 10:02:20;;;;;;;2.91;2.65;;;;;;;19.46;54.55;101441.05;;;;-59
2020/11/11 10:09:49;;;;;;;3.42;2.87;;;;;;;19.44;54.61;101435.80;;;;-60
2020/11/11 10:21:08;;;;;;;3.42;2.65;;;;;;;19.54;55.02;101416.34;;;;-59
2020/11/11 10:27:19;;;;;;;3.03;2.61;;;;;;;19.64;55.30;101412.75;;;;-51
2020/11/11 10:30:17;;;;;;;2.91;2.61;;;;;;;19.69;55.26;101406.36;;;;-52
2020/11/11 10:33:14;;;;;;;3.17;2.61;;;;;;;19.75;55.39;101393.95;;;;-53
2020/11/11 10:36:14;;;;;;;2.90;2.55;;;;;;;19.78;55.43;101380.38;;;;-56
2020/11/11 10:39:14;;;;;;;2.88;2.60;;;;;;;19.82;55.34;101372.53;;;;-59
2020/11/11 10:42:14;;;;;;;3.85;2.66;;;;;;;19.87;55.50;101373.22;;;;-58
2020/11/11 10:45:14;;;;;;;2.75;2.50;;;;;;;19.92;55.48;101372.97;;;;-51
2020/11/11 10:48:14;;;;;;;2.97;2.57;;;;;;;19.94;55.43;101369.11;;;;-53
2020/11/11 10:51:14;;;;;;;2.87;2.46;;;;;;;20.00;55.56;101362.71;;;;-53
2020/11/11 10:54:14;;;;;;;2.60;2.40;;;;;;;20.04;55.66;101353.52;;;;-54
2020/11/11 10:57:14;;;;;;;3.04;2.47;;;;;;;20.07;55.50;101351.39;;;;-54
2020/11/11 11:00:14;;;;;;;2.71;2.47;;;;;;;20.13;55.73;101348.86;;;;-54
2020/11/11 11:03:14;;;;;;;2.51;2.31;;;;;;;20.16;55.77;101350.16;;;;-55
2020/11/11 11:06:14;;;;;;;2.77;2.31;;;;;;;20.20;55.70;101345.42;;;;-56
2020/11/11 11:09:14;;;;;;;2.91;2.59;;;;;;;20.23;55.78;101344.08;;;;-59
2020/11/11 11:12:14;;;;;;;3.87;2.46;;;;;;;20.26;55.38;101339.91;;;;-62
2020/11/11 11:15:14;;;;;;;2.71;2.49;;;;;;;20.27;55.31;101345.97;;;;-63
2020/11/11 11:18:14;;;;;;;4.58;2.38;;;;;;;20.28;55.18;101344.42;;;;-61
2020/11/11 11:21:14;;;;;;;2.59;2.39;;;;;;;20.28;55.11;101338.65;;;;-60
2020/11/11 11:24:14;;;;;;;3.33;2.36;;;;;;;20.29;55.01;101334.34;;;;-60
2020/11/11 11:27:14;;;;;;;3.01;2.60;;;;;;;20.29;55.05;101331.41;;;;-61
2020/11/11 11:30:14;;;;;;;2.86;2.49;;;;;;;20.29;54.93;101326.52;;;;-62
2020/11/11 11:33:14;;;;;;;2.77;2.52;;;;;;;20.30;54.91;101322.32;;;;-60
2020/11/11 11:36:14;;;;;;;2.91;2.57;;;;;;;20.31;54.78;101317.92;;;;-62
2020/11/11 11:39:14;;;;;;;3.27;2.40;;;;;;;20.30;54.78;101307.34;;;;-61
2020/11/11 11:42:14;;;;;;;2.51;2.31;;;;;;;20.29;54.75;101304.05;;;;-60
2020/11/11 11:45:14;;;;;;;2.60;2.40;;;;;;;20.28;54.72;101300.96;;;;-62
2020/11/11 11:48:14;;;;;;;3.05;2.37;;;;;;;20.28;54.71;101298.68;;;;-60
2020/11/11 11:51:14;;;;;;;4.07;2.29;;;;;;;20.28;54.64;101301.69;;;;-60
2020/11/11 11:54:14;;;;;;;3.63;2.35;;;;;;;20.28;54.62;101291.52;;;;-58
2020/11/11 11:57:16;;;;;;;2.61;2.40;;;;;;;20.28;54.57;101289.16;;;;-52
2020/11/11 12:00:14;;;;;;;2.54;2.30;;;;;;;20.27;54.53;101287.74;;;;-52
2020/11/11 12:03:14;;;;;;;2.97;2.47;;;;;;;20.27;54.56;101282.80;;;;-52
2020/11/11 12:06:14;;;;;;;2.84;2.37;;;;;;;20.27;54.57;101279.77;;;;-51
2020/11/11 12:09:14;;;;;;;2.51;2.31;;;;;;;20.27;54.47;101279.92;;;;-52
2020/11/11 12:12:14;;;;;;;2.55;2.35;;;;;;;20.26;54.46;101278.70;;;;-51
2020/11/11 12:15:14;;;;;;;2.47;2.27;;;;;;;20.26;54.43;101273.00;;;;-59
2020/11/11 12:18:14;;;;;;;2.51;2.27;;;;;;;20.26;54.48;101270.48;;;;-53
2020/11/11 12:21:14;;;;;;;2.47;2.27;;;;;;;20.26;54.47;101262.59;;;;-51
2020/11/11 12:24:14;;;;;;;3.05;2.40;;;;;;;20.26;54.43;101263.64;;;;-54
2020/11/11 12:27:14;;;;;;;2.76;2.51;;;;;;;20.26;54.44;101261.37;;;;-51
2020/11/11 12:30:14;;;;;;;2.86;2.49;;;;;;;20.26;54.47;101256.73;;;;-52
2020/11/11 12:33:14;;;;;;;2.21;2.01;;;;;;;20.26;54.41;101254.28;;;;-53
2020/11/11 12:36:14;;;;;;;2.63;2.41;;;;;;;20.26;54.39;101258.44;;;;-53
2020/11/11 12:39:14;;;;;;;2.39;2.14;;;;;;;20.26;54.36;101253.06;;;;-51
2020/11/11 12:42:14;;;;;;;2.78;2.30;;;;;;;20.25;54.38;101245.17;;;;-54
2020/11/11 12:45:14;;;;;;;2.50;2.30;;;;;;;20.26;54.41;101247.20;;;;-53
2020/11/11 12:48:14;;;;;;;2.36;2.16;;;;;;;20.26;54.43;101242.80;;;;-54
2020/11/11 12:51:14;;;;;;;2.31;2.10;;;;;;;20.26;54.44;101236.46;;;;-54
2020/11/11 12:54:14;;;;;;;2.69;2.13;;;;;;;20.26;54.43;101232.64;;;;-58
2020/11/11 12:57:14;;;;;;;2.31;2.11;;;;;;;20.26;54.38;101231.33;;;;-58
2020/11/11 13:00:14;;;;;;;2.40;2.14;;;;;;;20.26;54.29;101232.31;;;;-59
2020/11/11 13:03:14;;;;;;;2.35;2.15;;;;;;;20.26;54.39;101227.75;;;;-59
2020/11/11 13:06:14;;;;;;;3.08;2.28;;;;;;;20.26;54.44;101225.31;;;;-48
2020/11/11 13:09:14;;;;;;;4.33;2.43;;;;;;;20.25;54.51;101223.03;;;;-47
2020/11/11 13:12:14;;;;;;;2.72;2.52;;;;;;;20.26;54.60;101217.49;;;;-47
2020/11/11 13:15:14;;;;;;;3.88;2.65;;;;;;;20.26;54.40;101211.88;;;;-51
2020/11/11 13:18:14;;;;;;;2.87;2.45;;;;;;;20.26;54.32;101207.16;;;;-63
2020/11/11 13:21:14;;;;;;;2.95;2.49;;;;;;;20.27;54.32;101206.34;;;;-62
2020/11/11 13:24:14;;;;;;;2.67;2.47;;;;;;;20.27;54.16;101207.48;;;;-60
2020/11/11 13:27:14;;;;;;;2.78;2.54;;;;;;;20.28;54.02;101212.23;;;;-62
2020/11/11 13:30:14;;;;;;;2.83;2.45;;;;;;;20.29;54.19;101210.77;;;;-61
2020/11/11 13:33:14;;;;;;;2.81;2.50;;;;;;;20.29;54.17;101207.84;;;;-63
2020/11/11 13:36:14;;;;;;;2.72;2.49;;;;;;;20.30;54.08;101207.63;;;;-57
2020/11/11 13:39:14;;;;;;;2.83;2.59;;;;;;;20.31;53.97;101200.05;;;;-48
2020/11/11 13:42:14;;;;;;;2.95;2.52;;;;;;;20.33;54.07;101201.95;;;;-52
2020/11/11 13:45:14;;;;;;;2.69;2.49;;;;;;;20.34;54.03;101198.41;;;;-55
2020/11/11 13:48:14;;;;;;;2.76;2.53;;;;;;;20.35;54.04;101193.28;;;;-53
2020/11/11 13:51:14;;;;;;;2.80;2.57;;;;;;;20.36;53.95;101189.89;;;;-58
2020/11/11 13:54:16;;;;;;;2.97;2.62;;;;;;;20.37;53.78;101188.42;;;;-58
2020/11/11 13:57:16;;;;;;;2.81;2.57;;;;;;;20.37;53.73;101188.09;;;;-57
2020/11/11 14:00:14;;;;;;;3.03;2.68;;;;;;;20.39;53.96;101187.31;;;;-57
2020/11/11 14:03:14;;;;;;;3.17;2.77;;;;;;;20.41;53.89;101189.37;;;;-51
2020/11/11 14:06:14;;;;;;;2.99;2.64;;;;;;;20.42;53.82;101180.67;;;;-53
2020/11/11 14:09:14;;;;;;;3.80;2.87;;;;;;;20.42;53.68;101182.41;;;;-57
2020/11/11 14:12:14;;;;;;;2.78;2.58;;;;;;;20.43;53.71;101181.10;;;;-62
2020/11/11 14:15:14;;;;;;;3.10;2.80;;;;;;;20.44;53.72;101184.23;;;;-59
2020/11/11 14:18:14;;;;;;;3.11;2.81;;;;;;;20.44;53.64;101185.77;;;;-57
2020/11/11 14:21:14;;;;;;;3.21;2.91;;;;;;;20.46;53.66;101184.62;;;;-59
2020/11/11 14:24:14;;;;;;;2.90;2.70;;;;;;;20.46;53.65;101187.92;;;;-58
2020/11/11 14:27:14;;;;;;;3.18;2.88;;;;;;;20.47;53.68;101191.91;;;;-53
2020/11/11 14:30:14;;;;;;;3.11;2.81;;;;;;;20.48;53.72;101184.41;;;;-59
2020/11/11 14:33:14;;;;;;;3.61;2.91;;;;;;;20.48;53.75;101183.63;;;;-60
2020/11/11 14:36:14;;;;;;;3.18;2.88;;;;;;;20.49;53.58;101186.56;;;;-58
2020/11/11 14:39:14;;;;;;;3.37;3.07;;;;;;;20.50;53.71;101183.88;;;;-58
2020/11/11 14:42:14;;;;;;;3.28;2.94;;;;;;;20.50;53.54;101184.88;;;;-51
2020/11/11 14:45:29;;;;;;;3.83;3.05;;;;;;;20.50;53.64;101184.72;;;;-46
2020/11/11 14:48:14;;;;;;;3.48;3.18;;;;;;;20.51;53.49;101184.47;;;;-49
2020/11/11 14:51:14;;;;;;;3.37;3.07;;;;;;;20.51;53.49;101182.44;;;;-50
2020/11/11 14:54:14;;;;;;;4.33;3.24;;;;;;;20.52;53.49;101182.19;;;;-52
2020/11/11 14:57:14;;;;;;;4.27;3.48;;;;;;;20.52;53.42;101180.67;;;;-52
2020/11/11 15:00:14;;;;;;;3.89;3.29;;;;;;;20.52;53.39;101183.33;;;;-55
2020/11/11 15:03:14;;;;;;;4.55;3.44;;;;;;;20.53;53.36;101179.29;;;;-54
2020/11/11 15:06:14;;;;;;;3.71;3.40;;;;;;;20.53;53.27;101182.30;;;;-50
2020/11/11 15:09:14;;;;;;;3.84;3.25;;;;;;;20.53;53.28;101178.88;;;;-57
2020/11/11 15:12:14;;;;;;;4.16;3.49;;;;;;;20.54;53.34;101173.59;;;;-55
2020/11/11 15:15:14;;;;;;;5.32;3.52;;;;;;;20.55;53.33;101171.42;;;;-57
2020/11/11 15:18:14;;;;;;;3.67;3.15;;;;;;;20.55;53.22;101166.77;;;;-60
2020/11/11 15:21:14;;;;;;;4.02;3.53;;;;;;;20.56;53.36;101161.89;;;;-57
2020/11/11 15:24:14;;;;;;;3.93;3.55;;;;;;;20.56;53.19;101163.19;;;;-59
2020/11/11 15:27:14;;;;;;;4.76;3.73;;;;;;;20.56;53.07;101167.27;;;;-59
2020/11/11 15:30:14;;;;;;;6.68;3.64;;;;;;;20.56;53.39;101166.13;;;;-60
2020/11/11 15:33:14;;;;;;;5.29;3.64;;;;;;;20.56;53.36;101167.84;;;;-59
2020/11/11 15:36:14;;;;;;;5.62;3.77;;;;;;;20.56;53.34;101162.37;;;;-58
2020/11/11 15:39:14;;;;;;;4.91;3.50;;;;;;;20.56;53.40;101160.18;;;;-57
2020/11/11 15:42:14;;;;;;;4.70;3.73;;;;;;;20.57;53.62;101163.55;;;;-50
2020/11/11 15:45:14;;;;;;;10.73;4.06;;;;;;;20.54;52.94;101161.38;;;;-52
2020/11/11 15:48:14;;;;;;;5.88;3.85;;;;;;;20.52;52.77;101162.59;;;;-51
2020/11/11 15:51:14;;;;;;;5.17;4.08;;;;;;;20.52;52.72;101165.66;;;;-63
2020/11/11 15:54:14;;;;;;;4.93;4.19;;;;;;;20.52;53.12;101166.67;;;;-55
2020/11/11 15:57:14;;;;;;;7.22;4.16;;;;;;;20.53;53.02;101173.42;;;;-58
2020/11/11 16:00:14;;;;;;;7.42;3.79;;;;;;;20.53;53.14;101168.46;;;;-53
2020/11/11 16:03:14;;;;;;;6.66;4.06;;;;;;;20.55;53.52;101165.80;;;;-58
2020/11/11 16:06:14;;;;;;;9.73;3.89;;;;;;;20.57;53.58;101165.91;;;;-53
2020/11/11 16:09:14;;;;;;;7.09;3.94;;;;;;;20.60;53.66;101166.86;;;;-51
2020/11/11 16:12:14;;;;;;;5.81;3.65;;;;;;;20.62;53.66;101166.08;;;;-53
2020/11/11 16:15:14;;;;;;;5.16;3.54;;;;;;;20.64;53.72;101161.45;;;;-52
2020/11/11 16:18:14;;;;;;;12.15;3.61;;;;;;;20.65;53.70;101168.57;;;;-53
2020/11/11 16:21:14;;;;;;;4.95;3.59;;;;;;;20.66;53.75;101167.75;;;;-55
2020/11/11 16:24:14;;;;;;;6.43;3.71;;;;;;;20.67;53.84;101168.84;;;;-50
2020/11/11 16:27:14;;;;;;;6.24;3.61;;;;;;;20.67;53.61;101168.59;;;;-50
2020/11/11 16:30:14;;;;;;;5.29;3.51;;;;;;;20.66;53.55;101169.22;;;;-51
2020/11/11 16:33:14;;;;;;;6.77;3.81;;;;;;;20.66;53.47;101162.05;;;;-51
2020/11/11 16:36:14;;;;;;;4.63;3.33;;;;;;;20.66;53.48;101158.80;;;;-50
2020/11/11 16:39:14;;;;;;;5.43;3.57;;;;;;;20.65;53.50;101157.17;;;;-50
2020/11/11 16:42:14;;;;;;;4.65;3.59;;;;;;;20.65;53.48;101160.59;;;;-50
2020/11/11 16:45:14;;;;;;;4.23;3.43;;;;;;;20.65;53.45;101158.52;;;;-50
2020/11/11 16:48:14;;;;;;;4.35;3.73;;;;;;;20.64;53.38;101155.02;;;;-51
2020/11/11 16:51:14;;;;;;;4.33;3.30;;;;;;;20.64;53.44;101163.49;;;;-50
2020/11/11 16:54:14;;;;;;;4.51;3.53;;;;;;;20.64;53.45;101165.37;;;;-50
2020/11/11 16:57:14;;;;;;;4.82;3.65;;;;;;;20.64;53.46;101168.05;;;;-50
2020/11/11 17:00:14;;;;;;;4.68;3.38;;;;;;;20.63;53.42;101168.14;;;;-50